Time;durP1;ratioP1;P1;durP2;ratioP2;P2;SDS_P1;SDS_P2;PMS_P1;PMS_P2;Temp;Humidity;BMP_temperature;BMP_pressure;BME280_temperature;BME280_humidity;BME280_pressure;Samples;Min_cycle;Max_cycle;Signal;HPM_P1;HPM_P2
2023/11/17 00:01:24;;;;;;;10.10;4.70;;;;;;;;;;5080667;28;20124;-62
2023/11/17 00:04:14;;;;;;;9.18;4.43;;;;;;;;;;5078264;28;20495;-62
2023/11/17 00:07:07;;;;;;;8.95;4.78;;;;;;;;;;5077133;28;20703;-62
2023/11/17 00:10:02;;;;;;;8.70;4.65;;;;;;;;;;5077446;28;20051;-62
2023/11/17 00:12:50;;;;;;;8.40;4.35;;;;;;;;;;5077296;28;20040;-62
2023/11/17 00:15:49;;;;;;;8.80;4.53;;;;;;;;;;5075703;28;20048;-62
2023/11/17 00:18:17;;;;;;;11.98;5.10;;;;;;;;;;5072805;28;20063;-62
2023/11/17 00:20:52;;;;;;;8.40;4.80;;;;;;;;;;5070715;28;20097;-51
2023/11/17 00:23:47;;;;;;;11.80;3.50;;;;;;;;;;5072058;28;20052;-59
2023/11/17 00:26:47;;;;;;;8.65;4.55;;;;;;;;;;5076724;28;20160;-58
2023/11/17 00:29:34;;;;;;;7.00;4.47;;;;;;;;;;5079217;28;20511;-57
2023/11/17 00:32:28;;;;;;;6.32;3.83;;;;;;;;;;5076276;28;20067;-56
2023/11/17 00:35:15;;;;;;;7.43;4.30;;;;;;;;;;5079182;28;20048;-58
2023/11/17 00:38:10;;;;;;;9.07;4.72;;;;;;;;;;5078193;28;20052;-62
2023/11/17 00:40:59;;;;;;;7.55;3.83;;;;;;;;;;5077157;28;20910;-62
2023/11/17 00:43:57;;;;;;;9.38;4.38;;;;;;;;;;5074517;28;20482;-63
2023/11/17 00:46:45;;;;;;;7.97;4.20;;;;;;;;;;5078296;28;20101;-62
2023/11/17 00:49:42;;;;;;;10.48;4.35;;;;;;;;;;5084944;28;20056;-52
2023/11/17 00:52:32;;;;;;;8.00;4.20;;;;;;;;;;5084027;28;20127;-56
2023/11/17 00:55:30;;;;;;;8.07;4.57;;;;;;;;;;5084702;28;20406;-55
2023/11/17 00:58:19;;;;;;;5.78;3.40;;;;;;;;;;5082026;28;20076;-56
2023/11/17 01:01:11;;;;;;;7.00;3.97;;;;;;;;;;5081452;28;20236;-56
2023/11/17 01:04:00;;;;;;;9.00;3.88;;;;;;;;;;5080061;28;20040;-58
2023/11/17 01:06:54;;;;;;;5.47;3.40;;;;;;;;;;5080809;28;20044;-48
2023/11/17 01:09:43;;;;;;;7.32;4.30;;;;;;;;;;5077491;28;20040;-47
2023/11/17 01:12:35;;;;;;;8.48;4.68;;;;;;;;;;5079744;28;20050;-53
2023/11/17 01:15:22;;;;;;;10.73;4.88;;;;;;;;;;5078363;28;20040;-49
2023/11/17 01:18:16;;;;;;;8.35;4.85;;;;;;;;;;5081662;28;20055;-59
2023/11/17 01:21:05;;;;;;;8.30;4.50;;;;;;;;;;5076975;28;20097;-64
2023/11/17 01:24:02;;;;;;;8.88;4.40;;;;;;;;;;5079445;28;20055;-65
2023/11/17 01:26:57;;;;;;;12.43;5.00;;;;;;;;;;5078314;28;20056;-64
2023/11/17 01:29:58;;;;;;;10.02;4.50;;;;;;;;;;5081064;28;20067;-63
2023/11/17 01:32:49;;;;;;;9.60;4.53;;;;;;;;;;5082709;28;20050;-64
2023/11/17 01:35:45;;;;;;;6.45;4.05;;;;;;;;;;5082961;28;20043;-54
2023/11/17 01:38:35;;;;;;;9.43;4.65;;;;;;;;;;5083660;28;20044;-50
2023/11/17 01:41:28;;;;;;;9.95;5.10;;;;;;;;;;5084677;28;20060;-56
2023/11/17 01:44:17;;;;;;;8.80;5.85;;;;;;;;;;5082913;28;20036;-53
2023/11/17 01:47:11;;;;;;;8.80;4.38;;;;;;;;;;5080683;28;20323;-58
2023/11/17 01:49:58;;;;;;;7.80;4.43;;;;;;;;;;5082687;28;20044;-54
2023/11/17 01:52:56;;;;;;;8.38;4.63;;;;;;;;;;5083600;28;20127;-54
2023/11/17 01:55:44;;;;;;;9.80;4.45;;;;;;;;;;5085100;28;20047;-49
2023/11/17 01:58:39;;;;;;;5.20;3.17;;;;;;;;;;5079201;28;20423;-52
2023/11/17 02:01:27;;;;;;;7.18;4.40;;;;;;;;;;5080120;28;20047;-53
2023/11/17 02:04:24;;;;;;;9.45;4.47;;;;;;;;;;5082185;28;20132;-56
2023/11/17 02:07:25;;;;;;;7.88;4.30;;;;;;;;;;5080354;28;20063;-57
2023/11/17 02:10:29;;;;;;;8.15;4.20;;;;;;;;;;5082036;28;20082;-58
2023/11/17 02:13:27;;;;;;;9.57;4.05;;;;;;;;;;5081594;28;20494;-57
2023/11/17 02:16:26;;;;;;;9.40;4.20;;;;;;;;;;5080989;28;20158;-46
2023/11/17 02:19:33;;;;;;;7.60;4.07;;;;;;;;;;5078707;28;20040;-57
2023/11/17 02:22:26;;;;;;;7.93;4.45;;;;;;;;;;5081870;28;20048;-58
2023/11/17 02:25:32;;;;;;;8.50;3.75;;;;;;;;;;5080350;28;20480;-58
2023/11/17 02:28:35;;;;;;;6.43;4.18;;;;;;;;;;5042188;28;20049;-57
2023/11/17 02:31:29;;;;;;;6.35;3.67;;;;;;;;;;5040763;28;20048;-59
2023/11/17 02:34:25;;;;;;;8.95;4.15;;;;;;;;;;5039663;28;20118;-47
2023/11/17 02:37:07;;;;;;;7.55;4.57;;;;;;;;;;5036283;28;20057;-46
2023/11/17 02:40:18;;;;;;;5.03;3.35;;;;;;;;;;5035793;28;20059;-49
2023/11/17 02:42:53;;;;;;;8.30;4.13;;;;;;;;;;5039878;28;20063;-61
2023/11/17 02:45:52;;;;;;;7.47;4.13;;;;;;;;;;5040523;28;20132;-50
2023/11/17 02:48:38;;;;;;;6.82;4.00;;;;;;;;;;5042129;28;20061;-45
2023/11/17 02:51:44;;;;;;;9.10;4.50;;;;;;;;;;5039738;28;20063;-47
2023/11/17 02:54:28;;;;;;;9.05;4.40;;;;;;;;;;5039229;28;20136;-46
2023/11/17 02:57:27;;;;;;;9.23;3.60;;;;;;;;;;5039137;28;20053;-51
2023/11/17 03:00:22;;;;;;;9.98;4.53;;;;;;;;;;5037766;28;20047;-54
2023/11/17 03:03:07;;;;;;;11.07;4.70;;;;;;;;;;5039663;28;20045;-51
2023/11/17 03:06:05;;;;;;;9.57;4.22;;;;;;;;;;5042885;28;20052;-49
2023/11/17 03:08:51;;;;;;;10.27;4.82;;;;;;;;;;5038438;28;20084;-53
2023/11/17 03:11:45;;;;;;;10.15;5.00;;;;;;;;;;5040784;28;20056;-61
2023/11/17 03:14:35;;;;;;;10.05;4.60;;;;;;;;;;5038144;28;20045;-50
2023/11/17 03:17:30;;;;;;;7.32;4.35;;;;;;;;;;5039404;28;20515;-49
2023/11/17 03:20:16;;;;;;;8.10;4.30;;;;;;;;;;5038409;28;20052;-51
2023/11/17 03:23:10;;;;;;;12.00;5.07;;;;;;;;;;5039621;28;20102;-46
2023/11/17 03:26:06;;;;;;;9.55;4.45;;;;;;;;;;5047444;28;20059;-52
2023/11/17 03:29:07;;;;;;;9.73;4.25;;;;;;;;;;5079597;28;20097;-61
2023/11/17 03:31:54;;;;;;;7.82;4.60;;;;;;;;;;5080056;28;20075;-61
2023/11/17 03:34:52;;;;;;;9.45;4.00;;;;;;;;;;5079158;28;20097;-61
2023/11/17 03:37:39;;;;;;;9.02;5.22;;;;;;;;;;5077953;28;20130;-61
2023/11/17 03:40:37;;;;;;;9.90;5.18;;;;;;;;;;5077610;28;20455;-58
2023/11/17 03:43:24;;;;;;;11.55;4.70;;;;;;;;;;5078396;28;20055;-53
2023/11/17 03:46:18;;;;;;;10.50;5.18;;;;;;;;;;5075871;28;20072;-55
2023/11/17 03:49:07;;;;;;;12.40;5.60;;;;;;;;;;5076966;28;20046;-55
2023/11/17 03:51:59;;;;;;;9.32;4.63;;;;;;;;;;5077835;28;20139;-52
2023/11/17 03:54:47;;;;;;;10.55;5.72;;;;;;;;;;5078220;28;20054;-54
2023/11/17 03:57:45;;;;;;;9.68;4.75;;;;;;;;;;5074862;28;20060;-51
2023/11/17 04:00:33;;;;;;;8.18;4.80;;;;;;;;;;5073618;28;20048;-53
2023/11/17 04:03:26;;;;;;;11.23;4.95;;;;;;;;;;5077987;28;20052;-50
2023/11/17 04:06:13;;;;;;;8.93;4.80;;;;;;;;;;5076993;28;20063;-48
2023/11/17 04:09:07;;;;;;;9.52;4.75;;;;;;;;;;5076296;28;20101;-61
2023/11/17 04:11:58;;;;;;;9.52;5.00;;;;;;;;;;5076604;28;20047;-59
2023/11/17 04:14:48;;;;;;;10.15;4.97;;;;;;;;;;5078887;28;20043;-60
2023/11/17 04:17:39;;;;;;;8.13;4.20;;;;;;;;;;5073966;28;20055;-59
2023/11/17 04:20:33;;;;;;;11.50;5.00;;;;;;;;;;5077681;28;20055;-60
2023/11/17 04:23:20;;;;;;;10.93;3.45;;;;;;;;;;5081382;28;20120;-59
2023/11/17 04:26:21;;;;;;;7.80;4.35;;;;;;;;;;5081706;28;20056;-61
2023/11/17 04:29:15;;;;;;;10.48;4.38;;;;;;;;;;5075907;28;20044;-62
2023/11/17 04:32:09;;;;;;;8.07;4.82;;;;;;;;;;5080531;28;20102;-62
2023/11/17 04:34:55;;;;;;;11.20;4.57;;;;;;;;;;5076516;28;20044;-61
2023/11/17 04:37:49;;;;;;;7.05;4.22;;;;;;;;;;5076225;28;20095;-60
2023/11/17 04:40:37;;;;;;;9.88;4.63;;;;;;;;;;5075888;28;20055;-59
2023/11/17 04:43:31;;;;;;;10.05;4.75;;;;;;;;;;5076060;28;20055;-57
2023/11/17 04:46:19;;;;;;;8.30;4.80;;;;;;;;;;5076656;28;20043;-59
2023/11/17 04:49:17;;;;;;;9.48;4.40;;;;;;;;;;5075167;28;20047;-58
2023/11/17 04:52:04;;;;;;;13.32;5.20;;;;;;;;;;5077759;28;20687;-59
2023/11/17 04:55:05;;;;;;;11.10;4.82;;;;;;;;;;5071409;28;20063;-60
2023/11/17 04:57:49;;;;;;;9.15;4.75;;;;;;;;;;5073754;28;20348;-60
2023/11/17 05:00:46;;;;;;;10.05;5.53;;;;;;;;;;5070495;28;20052;-60
2023/11/17 05:03:31;;;;;;;8.85;4.38;;;;;;;;;;5073548;28;20047;-60
2023/11/17 05:06:28;;;;;;;8.00;4.47;;;;;;;;;;5056976;28;20045;-62
2023/11/17 05:09:17;;;;;;;9.00;4.90;;;;;;;;;;5055971;28;20055;-57
2023/11/17 05:12:09;;;;;;;8.45;4.20;;;;;;;;;;5057481;28;20139;-58
2023/11/17 05:14:57;;;;;;;7.93;4.30;;;;;;;;;;5057046;28;20079;-59
2023/11/17 05:17:50;;;;;;;8.23;4.40;;;;;;;;;;5054979;28;20048;-55
2023/11/17 05:20:37;;;;;;;7.93;4.22;;;;;;;;;;5054723;28;20159;-58
2023/11/17 05:23:34;;;;;;;10.15;4.47;;;;;;;;;;5056865;28;20947;-58
2023/11/17 05:26:27;;;;;;;8.32;4.22;;;;;;;;;;5054372;28;20040;-59
2023/11/17 05:29:28;;;;;;;6.32;3.80;;;;;;;;;;5053501;28;20044;-58
2023/11/17 05:32:15;;;;;;;7.90;4.55;;;;;;;;;;5053274;28;20102;-56
2023/11/17 05:35:11;;;;;;;9.05;4.35;;;;;;;;;;5059734;28;20060;-60
2023/11/17 05:37:58;;;;;;;7.72;4.35;;;;;;;;;;5057010;28;21018;-60
2023/11/17 05:40:57;;;;;;;7.00;3.80;;;;;;;;;;5053708;28;20052;-60
2023/11/17 05:43:47;;;;;;;10.52;4.72;;;;;;;;;;5054951;28;20095;-60
2023/11/17 05:46:38;;;;;;;11.00;4.22;;;;;;;;;;5059820;28;20052;-61
2023/11/17 05:49:26;;;;;;;8.88;4.07;;;;;;;;;;5058338;28;20056;-60
2023/11/17 05:52:19;;;;;;;9.07;4.38;;;;;;;;;;5059271;28;20094;-61
2023/11/17 05:55:07;;;;;;;8.35;3.90;;;;;;;;;;5051386;28;20581;-60
2023/11/17 05:58:07;;;;;;;8.95;4.63;;;;;;;;;;5052762;28;20507;-60
2023/11/17 06:00:52;;;;;;;11.60;4.05;;;;;;;;;;5044685;28;20236;-61
2023/11/17 06:03:46;;;;;;;8.80;3.53;;;;;;;;;;5055342;28;20041;-49
2023/11/17 06:06:40;;;;;;;7.25;4.43;;;;;;;;;;5055679;28;20451;-62
2023/11/17 06:09:35;;;;;;;7.85;4.30;;;;;;;;;;5057875;28;20049;-61
2023/11/17 06:12:22;;;;;;;8.55;4.13;;;;;;;;;;5060565;28;20041;-61
2023/11/17 06:15:26;;;;;;;8.52;4.40;;;;;;;;;;5058632;28;20183;-62
2023/11/17 06:18:07;;;;;;;6.38;4.07;;;;;;;;;;5059047;28;20052;-61
2023/11/17 06:21:07;;;;;;;7.27;4.00;;;;;;;;;;5057725;28;20699;-54
2023/11/17 06:23:54;;;;;;;7.18;4.22;;;;;;;;;;5059500;28;20048;-49
2023/11/17 06:26:55;;;;;;;7.72;3.80;;;;;;;;;;5056672;28;20060;-53
2023/11/17 06:29:49;;;;;;;8.68;4.55;;;;;;;;;;5061190;28;20072;-48
2023/11/17 06:32:42;;;;;;;8.10;3.65;;;;;;;;;;5062728;28;20044;-52
2023/11/17 06:35:29;;;;;;;8.65;4.28;;;;;;;;;;5060808;28;20499;-46
2023/11/17 06:38:23;;;;;;;7.47;4.13;;;;;;;;;;5060067;28;20067;-60
2023/11/17 06:41:17;;;;;;;7.55;4.15;;;;;;;;;;5061792;28;20499;-59
2023/11/17 06:44:04;;;;;;;6.15;3.65;;;;;;;;;;5056304;28;20048;-59
2023/11/17 06:46:58;;;;;;;7.45;4.60;;;;;;;;;;5058166;28;20110;-59
2023/11/17 06:49:45;;;;;;;8.65;4.75;;;;;;;;;;5058190;28;20139;-61
2023/11/17 06:52:39;;;;;;;6.95;3.83;;;;;;;;;;5058039;28;20492;-52
2023/11/17 06:55:27;;;;;;;12.48;4.63;;;;;;;;;;5058422;28;20044;-53
2023/11/17 06:58:20;;;;;;;9.20;4.53;;;;;;;;;;5055698;28;20125;-55
2023/11/17 07:01:15;;;;;;;7.88;4.25;;;;;;;;;;5056631;28;20515;-55
2023/11/17 07:04:02;;;;;;;10.43;4.50;;;;;;;;;;5058223;28;20483;-55
2023/11/17 07:06:59;;;;;;;12.02;4.88;;;;;;;;;;5058944;28;20549;-60
2023/11/17 07:09:43;;;;;;;10.25;4.22;;;;;;;;;;5058477;28;20049;-60
2023/11/17 07:12:38;;;;;;;8.30;4.57;;;;;;;;;;5056281;28;20143;-61
2023/11/17 07:15:24;;;;;;;10.15;4.50;;;;;;;;;;5058758;28;20048;-60
2023/11/17 07:18:20;;;;;;;7.45;4.35;;;;;;;;;;5060537;28;20057;-56
2023/11/17 07:21:05;;;;;;;9.93;4.10;;;;;;;;;;5058483;28;20124;-47
2023/11/17 07:24:00;;;;;;;6.05;3.58;;;;;;;;;;5059906;28;20048;-53
2023/11/17 07:26:55;;;;;;;6.93;4.13;;;;;;;;;;5059244;28;20576;-48
2023/11/17 07:29:48;;;;;;;6.60;3.97;;;;;;;;;;5057394;28;20145;-52
2023/11/17 07:32:35;;;;;;;9.23;4.38;;;;;;;;;;5063403;28;20102;-47
2023/11/17 07:35:30;;;;;;;9.70;4.40;;;;;;;;;;5060756;28;20131;-47
2023/11/17 07:38:18;;;;;;;12.88;5.30;;;;;;;;;;5056331;28;20065;-49
2023/11/17 07:41:12;;;;;;;8.70;5.00;;;;;;;;;;5058436;28;20044;-49
2023/11/17 07:43:57;;;;;;;7.85;4.38;;;;;;;;;;5056865;28;20452;-47
2023/11/17 07:46:52;;;;;;;8.35;4.80;;;;;;;;;;5057434;28;20041;-62
2023/11/17 07:49:39;;;;;;;7.20;4.53;;;;;;;;;;5058094;28;20044;-48
2023/11/17 07:52:33;;;;;;;10.20;4.68;;;;;;;;;;5059024;28;20146;-47
2023/11/17 07:55:27;;;;;;;7.93;4.07;;;;;;;;;;5056805;28;20103;-48
2023/11/17 07:58:14;;;;;;;7.80;4.70;;;;;;;;;;5054782;28;22971;-48
2023/11/17 08:01:09;;;;;;;8.68;4.13;;;;;;;;;;5053879;28;20523;-52
2023/11/17 08:03:56;;;;;;;8.80;4.93;;;;;;;;;;5060191;28;20388;-59
2023/11/17 08:06:52;;;;;;;8.52;4.60;;;;;;;;;;5059134;28;20487;-58
2023/11/17 08:09:37;;;;;;;8.55;4.50;;;;;;;;;;5057217;28;20056;-58
2023/11/17 08:12:30;;;;;;;9.27;4.57;;;;;;;;;;5060719;28;20041;-59
2023/11/17 08:15:18;;;;;;;11.43;5.03;;;;;;;;;;5057804;28;20060;-59
2023/11/17 08:18:12;;;;;;;10.77;5.32;;;;;;;;;;5059516;28;20051;-60
2023/11/17 08:20:58;;;;;;;9.35;5.32;;;;;;;;;;5054489;28;20091;-60
2023/11/17 08:23:52;;;;;;;11.32;4.80;;;;;;;;;;5059497;28;20055;-60
2023/11/17 08:26:46;;;;;;;12.38;4.95;;;;;;;;;;5059127;28;20060;-60
2023/11/17 08:29:39;;;;;;;11.73;5.22;;;;;;;;;;5053929;28;20129;-60
2023/11/17 08:32:34;;;;;;;10.73;5.30;;;;;;;;;;5058531;28;20748;-60
2023/11/17 08:35:22;;;;;;;6.47;3.67;;;;;;;;;;5055659;28;20040;-60
2023/11/17 08:38:16;;;;;;;11.80;5.72;;;;;;;;;;5054084;28;20040;-61
2023/11/17 08:41:02;;;;;;;10.60;5.00;;;;;;;;;;5055505;28;20165;-60
2023/11/17 08:43:57;;;;;;;10.52;5.00;;;;;;;;;;5055688;28;20041;-60
2023/11/17 08:46:44;;;;;;;9.43;4.88;;;;;;;;;;5052077;28;20053;-62
2023/11/17 08:49:37;;;;;;;8.23;5.13;;;;;;;;;;5056657;28;20511;-62
2023/11/17 08:52:27;;;;;;;8.98;4.88;;;;;;;;;;5051939;28;20061;-61
2023/11/17 08:55:23;;;;;;;11.45;4.85;;;;;;;;;;5053780;28;20094;-62
2023/11/17 08:58:10;;;;;;;10.00;5.60;;;;;;;;;;5055900;28;20136;-61
2023/11/17 09:01:05;;;;;;;8.38;5.05;;;;;;;;;;5078878;28;20054;-58
2023/11/17 09:03:52;;;;;;;14.20;6.15;;;;;;;;;;5078747;28;20048;-57
2023/11/17 09:06:45;;;;;;;8.40;5.18;;;;;;;;;;5076501;28;20044;-58
2023/11/17 09:09:32;;;;;;;8.77;4.93;;;;;;;;;;5079532;28;20079;-59
2023/11/17 09:12:27;;;;;;;10.27;5.60;;;;;;;;;;5084776;28;20106;-61
2023/11/17 09:15:25;;;;;;;11.90;5.75;;;;;;;;;;5081915;28;20051;-61
2023/11/17 09:18:21;;;;;;;11.95;5.13;;;;;;;;;;5082773;28;20423;-59
2023/11/17 09:21:07;;;;;;;9.23;5.22;;;;;;;;;;5081423;28;20117;-60
2023/11/17 09:24:01;;;;;;;10.80;5.30;;;;;;;;;;5081307;28;20491;-60
2023/11/17 09:26:48;;;;;;;11.10;5.13;;;;;;;;;;5074970;28;20064;-60
2023/11/17 09:29:49;;;;;;;10.43;5.25;;;;;;;;;;5059273;28;20048;-61
2023/11/17 09:32:36;;;;;;;8.10;4.63;;;;;;;;;;5058305;28;20130;-61
2023/11/17 09:35:32;;;;;;;9.75;5.00;;;;;;;;;;5059223;28;20048;-61
2023/11/17 09:38:21;;;;;;;6.15;3.00;;;;;;;;;;5057596;28;20044;-61
2023/11/17 09:41:16;;;;;;;8.23;4.55;;;;;;;;;;5059098;28;20044;-61
2023/11/17 09:44:03;;;;;;;7.93;4.78;;;;;;;;;;5058148;28;20126;-58
2023/11/17 09:47:06;;;;;;;8.80;4.20;;;;;;;;;;5052752;28;20098;-58
2023/11/17 09:49:53;;;;;;;7.63;3.65;;;;;;;;;;5058061;28;20055;-59
2023/11/17 09:52:52;;;;;;;8.80;4.03;;;;;;;;;;5058808;28;20037;-60
2023/11/17 09:55:51;;;;;;;9.52;4.28;;;;;;;;;;5053603;28;20052;-59
2023/11/17 09:58:38;;;;;;;7.70;4.70;;;;;;;;;;5056989;28;20049;-64
2023/11/17 10:01:34;;;;;;;7.70;4.70;;;;;;;;;;5057218;28;20099;-62
2023/11/17 10:04:21;;;;;;;8.45;4.53;;;;;;;;;;5056411;28;20452;-61
2023/11/17 10:07:15;;;;;;;7.40;4.35;;;;;;;;;;5057303;28;20048;-59
2023/11/17 10:10:14;;;;;;;7.75;4.88;;;;;;;;;;5057670;28;20058;-60
2023/11/17 10:13:10;;;;;;;8.75;4.13;;;;;;;;;;5057545;28;20123;-62
2023/11/17 10:15:52;;;;;;;9.75;4.38;;;;;;;;;;5058995;28;20048;-61
2023/11/17 10:18:47;;;;;;;7.55;4.32;;;;;;;;;;5051276;28;20190;-62
2023/11/17 10:21:34;;;;;;;8.38;4.20;;;;;;;;;;5057709;28;20064;-62
2023/11/17 10:24:28;;;;;;;6.25;3.88;;;;;;;;;;5057384;28;20040;-62
2023/11/17 10:27:17;;;;;;;5.95;3.80;;;;;;;;;;5059174;28;20265;-60
2023/11/17 10:30:17;;;;;;;8.25;4.50;;;;;;;;;;5062035;28;20121;-61
2023/11/17 10:33:07;;;;;;;7.68;4.47;;;;;;;;;;5056968;28;20052;-60
2023/11/17 10:36:01;;;;;;;8.23;4.50;;;;;;;;;;5052908;28;20044;-62
2023/11/17 10:39:03;;;;;;;8.05;3.63;;;;;;;;;;5055599;28;23788;-52
2023/11/17 10:41:56;;;;;;;4.20;2.75;;;;;;;;;;5060580;28;20047;-51
2023/11/17 10:44:43;;;;;;;7.10;3.97;;;;;;;;;;5056630;28;20454;-51
2023/11/17 10:47:40;;;;;;;5.90;3.88;;;;;;;;;;5057001;28;20082;-54
2023/11/17 10:50:28;;;;;;;7.90;4.25;;;;;;;;;;5053647;28;20056;-48
2023/11/17 10:53:20;;;;;;;4.90;3.45;;;;;;;;;;5057034;28;20055;-50
2023/11/17 10:56:23;;;;;;;6.78;3.92;;;;;;;;;;5057984;28;20528;-61
2023/11/17 10:59:19;;;;;;;8.32;3.67;;;;;;;;;;5056486;28;20466;-61
2023/11/17 11:02:27;;;;;;;5.95;3.83;;;;;;;;;;5059143;28;20141;-61
2023/11/17 11:05:13;;;;;;;6.18;3.63;;;;;;;;;;5058320;28;20102;-52
2023/11/17 11:08:28;;;;;;;5.35;3.47;;;;;;;;;;5054122;28;20040;-48
2023/11/17 11:11:20;;;;;;;7.07;3.95;;;;;;;;;;5056543;28;20048;-49
2023/11/17 11:14:16;;;;;;;6.97;4.20;;;;;;;;;;5056848;28;20519;-51
2023/11/17 11:17:01;;;;;;;7.97;3.70;;;;;;;;;;5057775;28;20114;-51
2023/11/17 11:19:54;;;;;;;8.23;4.82;;;;;;;;;;5050157;28;20056;-49
2023/11/17 11:22:53;;;;;;;8.13;4.20;;;;;;;;;;5057517;28;20037;-60
2023/11/17 11:25:47;;;;;;;9.57;4.28;;;;;;;;;;5054759;28;20036;-60
2023/11/17 11:28:41;;;;;;;5.57;3.75;;;;;;;;;;5054894;28;20052;-60
2023/11/17 11:31:37;;;;;;;11.73;4.20;;;;;;;;;;5058556;28;20503;-59
2023/11/17 11:34:22;;;;;;;8.07;3.90;;;;;;;;;;5058610;28;20482;-62
2023/11/17 11:37:18;;;;;;;5.68;4.03;;;;;;;;;;5058732;28;20053;-61
2023/11/17 11:40:04;;;;;;;7.55;4.43;;;;;;;;;;5057136;28;20057;-61
2023/11/17 11:42:58;;;;;;;7.32;4.20;;;;;;;;;;5055057;28;20147;-61
2023/11/17 11:45:46;;;;;;;8.18;4.07;;;;;;;;;;5054696;28;20052;-61
2023/11/17 11:48:43;;;;;;;8.32;3.55;;;;;;;;;;5055906;28;20079;-61
2023/11/17 11:51:29;;;;;;;8.32;3.70;;;;;;;;;;5058170;28;20044;-59
2023/11/17 11:54:23;;;;;;;9.80;4.32;;;;;;;;;;5061696;28;20110;-60
2023/11/17 11:57:30;;;;;;;6.90;4.25;;;;;;;;;;5054041;28;20064;-59
2023/11/17 12:00:29;;;;;;;7.18;4.30;;;;;;;;;;5055508;28;20045;-59
2023/11/17 12:03:17;;;;;;;6.40;4.18;;;;;;;;;;5055923;28;20503;-52
2023/11/17 12:06:10;;;;;;;6.78;4.07;;;;;;;;;;5055286;28;20036;-53
2023/11/17 12:08:59;;;;;;;8.82;3.92;;;;;;;;;;5053032;28;20040;-55
2023/11/17 12:11:53;;;;;;;6.05;4.05;;;;;;;;;;5058495;28;20041;-50
2023/11/17 12:14:41;;;;;;;8.15;4.30;;;;;;;;;;5054073;28;20052;-49
2023/11/17 12:17:45;;;;;;;9.95;4.30;;;;;;;;;;5053891;28;20049;-56
2023/11/17 12:20:39;;;;;;;10.90;4.57;;;;;;;;;;5056474;28;20048;-60
2023/11/17 12:23:51;;;;;;;8.38;4.43;;;;;;;;;;5053077;28;20375;-60
2023/11/17 12:26:38;;;;;;;6.50;3.90;;;;;;;;;;5052625;28;20396;-60
2023/11/17 12:29:42;;;;;;;6.15;3.90;;;;;;;;;;5055535;28;20056;-62
2023/11/17 12:32:27;;;;;;;8.20;4.30;;;;;;;;;;5054825;28;20055;-55
2023/11/17 12:35:22;;;;;;;6.60;3.92;;;;;;;;;;5054647;28;20618;-62
2023/11/17 12:38:13;;;;;;;8.10;4.45;;;;;;;;;;5056031;28;20044;-63
2023/11/17 12:41:10;;;;;;;6.95;4.45;;;;;;;;;;5055306;28;20048;-63
2023/11/17 12:43:56;;;;;;;6.55;4.20;;;;;;;;;;5058546;28;20048;-62
2023/11/17 12:46:52;;;;;;;8.05;4.00;;;;;;;;;;5056071;28;20102;-62
2023/11/17 12:49:56;;;;;;;7.32;4.57;;;;;;;;;;5060199;28;20270;-50
2023/11/17 12:52:56;;;;;;;7.10;4.15;;;;;;;;;;5060990;28;20562;-50
2023/11/17 12:55:46;;;;;;;6.88;4.00;;;;;;;;;;5060514;28;20051;-50
2023/11/17 12:58:40;;;;;;;9.38;3.50;;;;;;;;;;5081291;28;20040;-57
2023/11/17 13:01:28;;;;;;;7.70;3.83;;;;;;;;;;5082444;28;20491;-61
2023/11/17 13:04:25;;;;;;;8.40;4.13;;;;;;;;;;5081175;28;20052;-60
2023/11/17 13:07:09;;;;;;;8.60;4.00;;;;;;;;;;5076181;28;21313;-60
2023/11/17 13:10:04;;;;;;;5.57;3.70;;;;;;;;;;5078558;28;20491;-60
2023/11/17 13:12:52;;;;;;;4.80;3.47;;;;;;;;;;5081090;28;20155;-63
2023/11/17 13:15:46;;;;;;;5.95;3.75;;;;;;;;;;5082072;28;20075;-60
2023/11/17 13:18:39;;;;;;;8.35;3.90;;;;;;;;;;5081152;28;20050;-60
2023/11/17 13:21:33;;;;;;;6.35;3.70;;;;;;;;;;5079414;28;20403;-59
2023/11/17 13:24:19;;;;;;;6.13;4.15;;;;;;;;;;5081898;28;20048;-60
2023/11/17 13:27:27;;;;;;;7.07;3.97;;;;;;;;;;5071585;28;20514;-62
2023/11/17 13:30:21;;;;;;;5.82;3.45;;;;;;;;;;5060278;28;20057;-62
2023/11/17 13:33:15;;;;;;;7.15;3.97;;;;;;;;;;5058968;28;20075;-62
2023/11/17 13:36:02;;;;;;;5.82;4.15;;;;;;;;;;5058940;28;20044;-62
2023/11/17 13:41:44;;;;;;;6.20;4.32;;;;;;;;;;5056845;28;20055;-62
2023/11/17 13:44:40;;;;;;;7.53;4.37;;;;;;;;;;5050879;28;20084;-61
2023/11/17 13:47:26;;;;;;;7.35;3.92;;;;;;;;;;5057267;28;20051;-60
2023/11/17 13:50:21;;;;;;;10.20;4.57;;;;;;;;;;5059225;28;20053;-60
2023/11/17 13:53:11;;;;;;;6.63;4.32;;;;;;;;;;5059000;28;20040;-60
2023/11/17 13:56:03;;;;;;;7.25;4.50;;;;;;;;;;5059412;28;20132;-60
2023/11/17 13:58:49;;;;;;;7.60;4.20;;;;;;;;;;5060333;28;20041;-56
2023/11/17 14:01:45;;;;;;;8.27;4.40;;;;;;;;;;5058215;28;20058;-55
2023/11/17 14:04:35;;;;;;;7.15;4.55;;;;;;;;;;5057696;28;20040;-52
2023/11/17 14:07:28;;;;;;;6.65;4.35;;;;;;;;;;5058965;28;20049;-57
2023/11/17 14:10:22;;;;;;;7.70;4.32;;;;;;;;;;5056851;28;20170;-57
2023/11/17 14:13:17;;;;;;;7.53;4.85;;;;;;;;;;5058623;28;20060;-60
2023/11/17 14:16:08;;;;;;;9.60;5.05;;;;;;;;;;5060759;28;20884;-61
2023/11/17 14:18:58;;;;;;;7.70;5.07;;;;;;;;;;5060199;28;20040;-60
2023/11/17 14:21:46;;;;;;;7.22;4.60;;;;;;;;;;5058180;28;20059;-60
2023/11/17 14:24:40;;;;;;;10.32;4.82;;;;;;;;;;5055560;28;20044;-56
2023/11/17 14:27:33;;;;;;;8.07;4.75;;;;;;;;;;5057826;28;20057;-61
2023/11/17 14:30:27;;;;;;;8.63;4.95;;;;;;;;;;5060117;28;20106;-62
2023/11/17 14:33:14;;;;;;;10.13;4.95;;;;;;;;;;5055088;28;20055;-62
2023/11/17 14:36:07;;;;;;;7.10;4.38;;;;;;;;;;5058371;28;20048;-62
2023/11/17 14:38:54;;;;;;;7.28;4.50;;;;;;;;;;5059219;28;20053;-62
2023/11/17 14:41:50;;;;;;;7.72;4.50;;;;;;;;;;5057091;28;20159;-61
2023/11/17 14:44:35;;;;;;;7.80;4.40;;;;;;;;;;5055498;28;20045;-60
2023/11/17 14:47:29;;;;;;;7.03;3.42;;;;;;;;;;5059515;28;20052;-60
2023/11/17 14:50:17;;;;;;;6.25;4.53;;;;;;;;;;5056754;28;20060;-60
2023/11/17 14:53:10;;;;;;;9.07;5.10;;;;;;;;;;5058620;28;20049;-48
2023/11/17 14:55:58;;;;;;;8.70;4.80;;;;;;;;;;5054981;28;20048;-60
2023/11/17 14:58:52;;;;;;;9.05;4.72;;;;;;;;;;5048967;28;20089;-60
2023/11/17 15:01:41;;;;;;;8.45;5.18;;;;;;;;;;5048337;28;20059;-60
2023/11/17 15:04:32;;;;;;;9.55;5.00;;;;;;;;;;5056468;28;20076;-60
2023/11/17 15:07:19;;;;;;;8.05;5.22;;;;;;;;;;5059022;28;20080;-60
2023/11/17 15:10:14;;;;;;;8.43;4.90;;;;;;;;;;5057046;28;20048;-60
2023/11/17 15:13:01;;;;;;;12.43;5.15;;;;;;;;;;5059348;28;20045;-60
2023/11/17 15:15:57;;;;;;;11.07;5.43;;;;;;;;;;5051510;28;20145;-60
2023/11/17 15:18:45;;;;;;;10.05;5.32;;;;;;;;;;5054455;28;20072;-60
2023/11/17 15:21:43;;;;;;;8.27;4.72;;;;;;;;;;5052719;28;20522;-61
2023/11/17 15:24:26;;;;;;;11.98;5.25;;;;;;;;;;5044895;28;20040;-59
2023/11/17 15:27:27;;;;;;;9.23;5.28;;;;;;;;;;5053630;28;20060;-59
2023/11/17 15:30:19;;;;;;;10.07;4.72;;;;;;;;;;5056210;28;20530;-60
2023/11/17 15:33:13;;;;;;;8.30;4.43;;;;;;;;;;5057360;28;20063;-59
2023/11/17 15:36:00;;;;;;;13.10;5.15;;;;;;;;;;5054236;28;20047;-60
2023/11/17 15:38:58;;;;;;;9.35;4.50;;;;;;;;;;5053783;28;20079;-55
2023/11/17 15:41:45;;;;;;;6.43;4.35;;;;;;;;;;5054545;28;21952;-56
2023/11/17 15:44:39;;;;;;;9.00;4.53;;;;;;;;;;5057135;28;20082;-55
2023/11/17 15:47:25;;;;;;;8.63;5.20;;;;;;;;;;5047647;28;20072;-54
2023/11/17 15:50:20;;;;;;;8.82;4.70;;;;;;;;;;5050718;28;20051;-61
2023/11/17 15:53:06;;;;;;;6.18;4.07;;;;;;;;;;5048454;28;20127;-59
2023/11/17 15:56:00;;;;;;;9.95;4.93;;;;;;;;;;5054762;28;20938;-60
2023/11/17 15:58:47;;;;;;;9.63;4.55;;;;;;;;;;5053931;28;20049;-58
2023/11/17 16:01:43;;;;;;;8.27;4.25;;;;;;;;;;5054342;28;20048;-58
2023/11/17 16:04:30;;;;;;;7.22;4.30;;;;;;;;;;5057932;28;20048;-59
2023/11/17 16:07:24;;;;;;;9.85;4.20;;;;;;;;;;5057512;28;20044;-62
2023/11/17 16:10:14;;;;;;;11.45;4.88;;;;;;;;;;5055182;28;20048;-62
2023/11/17 16:13:05;;;;;;;9.18;4.55;;;;;;;;;;5036707;28;20073;-62
2023/11/17 16:15:52;;;;;;;9.02;4.25;;;;;;;;;;5049488;28;20149;-62
2023/11/17 16:18:46;;;;;;;9.45;4.53;;;;;;;;;;5053571;28;20052;-61
2023/11/17 16:21:35;;;;;;;8.75;4.68;;;;;;;;;;5054015;28;22011;-56
2023/11/17 16:56:07;;;;;;;7.13;4.60;;;;;;;;;;5062806;28;20067;-54
2023/11/17 16:58:42;;;;;;;7.50;4.68;;;;;;;;;;5056063;28;20064;-53
2023/11/17 17:01:15;;;;;;;9.10;5.00;;;;;;;;;;5057929;28;20059;-53
2023/11/17 17:03:42;;;;;;;;;;;;;;;;;;5054996;28;20510;-53
2023/11/17 17:06:18;;;;;;;10.75;5.38;;;;;;;;;;5053619;28;19932;-54
2023/11/17 17:08:49;;;;;;;12.43;5.55;;;;;;;;;;5054436;28;20064;-66
2023/11/17 17:11:23;;;;;;;9.75;5.80;;;;;;;;;;5054963;28;20095;-55
2023/11/17 17:13:51;;;;;;;10.60;6.20;;;;;;;;;;5054454;28;20053;-54
2023/11/17 17:16:19;;;;;;;11.45;5.97;;;;;;;;;;5057324;28;20059;-54
2023/11/17 17:18:52;;;;;;;9.93;5.40;;;;;;;;;;5056168;28;20043;-53
2023/11/17 17:21:21;;;;;;;13.98;7.07;;;;;;;;;;5049360;28;20491;-55
2023/11/17 17:26:38;;;;;;;12.43;6.75;;;;;;;;;;4343751;26;20084;-61
2023/11/17 17:29:12;;;;;;;14.57;6.15;;;;;;;;;;5022641;28;20053;-59
2023/11/17 17:31:40;;;;;;;14.00;6.35;;;;;;;;;;5013729;28;21130;-60
2023/11/17 17:34:09;;;;;;;13.23;6.10;;;;;;;;;;5022228;28;20106;-60
2023/11/17 17:36:43;;;;;;;12.00;6.28;;;;;;;;;;5022392;28;20049;-60
2023/11/17 17:39:16;;;;;;;8.25;5.20;;;;;;;;;;5020410;28;20053;-54
2023/11/17 17:41:50;;;;;;;11.18;5.63;;;;;;;;;;5020623;28;20126;-55